Time;durP1;ratioP1;P1;durP2;ratioP2;P2;SDS_P1;SDS_P2;PMS_P1;PMS_P2;Temp;Humidity;BMP_temperature;BMP_pressure;BME280_temperature;BME280_humidity;BME280_pressure;Samples;Min_cycle;Max_cycle;Signal;HPM_P1;HPM_P2
2022/08/30 00:02:13;;;;;;;5.07;2.38;;;17.40;99.90;;;;;;4990962;28;20076;-79
2022/08/30 00:04:38;;;;;;;4.18;1.90;;;17.40;99.90;;;;;;5005861;28;20048;-79
2022/08/30 00:07:04;;;;;;;4.53;2.15;;;17.40;99.90;;;;;;5005185;28;20053;-81
2022/08/30 00:09:31;;;;;;;4.03;1.70;;;17.40;99.90;;;;;;5022142;28;20052;-80
2022/08/30 00:11:56;;;;;;;4.22;1.88;;;17.40;99.90;;;;;;5006298;28;20049;-80
2022/08/30 00:14:24;;;;;;;3.45;1.95;;;17.40;99.90;;;;;;4983936;28;20055;-79
2022/08/30 00:16:50;;;;;;;3.40;1.95;;;17.40;99.90;;;;;;5007984;28;20679;-81
2022/08/30 00:19:16;;;;;;;5.93;2.20;;;17.40;99.90;;;;;;5017657;28;20056;-80
2022/08/30 00:21:41;;;;;;;3.33;2.10;;;17.40;99.90;;;;;;5013876;28;20057;-79
2022/08/30 00:24:07;;;;;;;3.13;2.05;;;17.40;99.90;;;;;;5009467;28;20072;-80
2022/08/30 00:26:33;;;;;;;6.22;2.53;;;17.40;99.90;;;;;;5017294;28;20049;-81
2022/08/30 00:28:59;;;;;;;3.55;2.00;;;17.40;99.90;;;;;;5001641;28;20060;-80
2022/08/30 00:31:24;;;;;;;4.28;2.10;;;17.40;99.90;;;;;;5019564;28;20391;-80
2022/08/30 00:33:50;;;;;;;3.40;2.08;;;17.40;99.90;;;;;;4972606;28;20052;-80
2022/08/30 00:36:16;;;;;;;4.90;2.10;;;17.40;99.90;;;;;;5036613;28;20102;-79
2022/08/30 00:38:42;;;;;;;4.53;2.00;;;17.40;99.90;;;;;;5020310;28;20135;-79
2022/08/30 00:41:07;;;;;;;4.15;2.30;;;17.40;99.90;;;;;;5012976;28;20685;-80
2022/08/30 00:43:34;;;;;;;4.68;2.00;;;17.40;99.90;;;;;;5001897;28;20049;-80
2022/08/30 00:46:03;;;;;;;7.10;2.05;;;17.30;99.90;;;;;;5015509;28;20128;-78
2022/08/30 00:48:30;;;;;;;3.00;2.10;;;17.30;99.90;;;;;;5004289;28;20061;-79
2022/08/30 00:51:04;;;;;;;3.45;1.88;;;17.30;99.90;;;;;;5014146;28;20049;-81
2022/08/30 00:53:35;;;;;;;6.10;1.90;;;17.30;99.90;;;;;;5024537;28;20045;-80
2022/08/30 00:56:02;;;;;;;4.47;1.85;;;17.30;99.90;;;;;;5023750;28;20045;-80
2022/08/30 00:58:33;;;;;;;3.03;1.90;;;17.20;99.90;;;;;;5023853;28;20068;-79
2022/08/30 01:01:00;;;;;;;6.50;1.90;;;17.20;99.90;;;;;;5021067;28;20076;-79
2022/08/30 01:03:27;;;;;;;3.38;1.45;;;17.20;99.90;;;;;;5006299;28;20160;-80
2022/08/30 01:05:53;;;;;;;4.03;1.95;;;17.20;99.90;;;;;;4971093;28;20088;-80
2022/08/30 01:08:22;;;;;;;4.68;1.75;;;17.20;99.90;;;;;;5039577;28;20041;-79
2022/08/30 01:10:50;;;;;;;4.25;1.90;;;17.10;99.90;;;;;;5022361;28;20038;-79
2022/08/30 01:13:16;;;;;;;5.72;2.00;;;17.10;99.90;;;;;;5009233;28;20045;-80
2022/08/30 01:15:43;;;;;;;3.70;1.75;;;17.10;99.90;;;;;;5028707;28;20045;-80
2022/08/30 01:18:10;;;;;;;3.38;1.70;;;17.10;99.90;;;;;;5004252;28;20044;-79
2022/08/30 01:20:59;;;;;;;3.28;1.58;;;17.10;99.90;;;;;;5028366;28;20080;-80
2022/08/30 01:23:25;;;;;;;4.13;1.55;;;17.10;99.90;;;;;;5019685;28;20059;-80
2022/08/30 01:25:53;;;;;;;3.25;1.40;;;17.10;99.90;;;;;;5020324;28;20061;-80
2022/08/30 01:28:24;;;;;;;2.30;1.23;;;17.10;99.90;;;;;;4989023;28;20128;-80
2022/08/30 01:30:50;;;;;;;3.85;1.10;;;17.10;99.90;;;;;;5010345;28;20518;-79
2022/08/30 01:33:18;;;;;;;3.15;1.25;;;17.10;99.90;;;;;;5006429;28;20049;-79
2022/08/30 01:36:02;;;;;;;3.08;1.30;;;17.10;99.90;;;;;;5506003;22;20058;-79
2022/08/30 01:38:50;;;;;;;2.47;1.20;;;17.10;99.90;;;;;;5030820;28;20057;-78
2022/08/30 01:41:18;;;;;;;3.35;1.23;;;17.10;99.90;;;;;;5013966;28;20431;-80
2022/08/30 01:43:44;;;;;;;4.63;1.20;;;17.10;99.90;;;;;;5028809;28;20053;-80
2022/08/30 01:46:11;;;;;;;3.20;1.25;;;17.50;99.90;;;;;;5029348;28;20395;-79
2022/08/30 01:48:39;;;;;;;3.58;2.03;;;17.10;99.90;;;;;;5029419;28;20115;-79
2022/08/30 01:51:05;;;;;;;3.22;1.25;;;17.10;99.90;;;;;;5012909;28;20111;-80
2022/08/30 01:53:32;;;;;;;5.25;1.40;;;17.10;99.90;;;;;;5029855;28;20037;-78
2022/08/30 01:55:58;;;;;;;5.47;1.38;;;17.10;99.90;;;;;;5020347;28;20375;-79
2022/08/30 01:58:23;;;;;;;3.30;1.35;;;17.20;99.90;;;;;;5005593;28;20045;-79
2022/08/30 02:00:50;;;;;;;2.25;1.23;;;17.20;99.90;;;;;;4995553;28;20559;-80
2022/08/30 02:03:16;;;;;;;3.08;1.30;;;17.20;99.90;;;;;;5012728;28;20082;-79
2022/08/30 02:05:42;;;;;;;2.65;1.30;;;17.20;99.90;;;;;;5028258;28;20042;-79
2022/08/30 02:08:08;;;;;;;3.92;1.30;;;17.20;99.90;;;;;;4996458;28;20062;-79
2022/08/30 02:10:34;;;;;;;2.03;1.08;;;17.20;99.90;;;;;;5006807;28;20065;-79
2022/08/30 02:13:00;;;;;;;2.70;1.20;;;17.20;99.90;;;;;;5003219;28;20211;-78
2022/08/30 02:15:26;;;;;;;2.70;1.25;;;17.20;99.90;;;;;;5010903;28;20046;-74
2022/08/30 02:17:52;;;;;;;4.82;1.40;;;17.20;99.90;;;;;;5004336;28;20060;-78
2022/08/30 02:20:19;;;;;;;2.45;1.25;;;17.20;99.90;;;;;;5042714;28;20052;-80
2022/08/30 02:22:46;;;;;;;4.22;1.65;;;17.20;99.90;;;;;;5021876;28;20445;-78
2022/08/30 02:25:12;;;;;;;5.70;1.80;;;17.20;99.90;;;;;;5008590;28;20107;-78
2022/08/30 02:27:38;;;;;;;4.78;1.70;;;17.10;99.90;;;;;;5041692;28;20049;-80
2022/08/30 02:30:06;;;;;;;3.28;1.40;;;17.10;99.90;;;;;;5005744;28;20053;-79
2022/08/30 02:32:31;;;;;;;2.45;1.27;;;17.10;99.90;;;;;;5038599;28;20041;-79
2022/08/30 02:34:57;;;;;;;3.20;1.42;;;17.10;99.90;;;;;;5005908;28;20136;-80
2022/08/30 02:37:23;;;;;;;2.95;1.10;;;17.10;99.90;;;;;;5003070;28;20061;-79
2022/08/30 02:39:49;;;;;;;3.10;1.30;;;17.10;99.90;;;;;;5005119;28;20084;-79
2022/08/30 02:42:14;;;;;;;5.22;1.40;;;17.10;99.90;;;;;;5027886;28;20041;-77
2022/08/30 02:44:40;;;;;;;4.07;1.50;;;17.00;99.90;;;;;;4994280;28;20111;-77
2022/08/30 02:47:06;;;;;;;3.55;1.40;;;17.10;99.90;;;;;;5027011;28;20096;-75
2022/08/30 02:49:32;;;;;;;3.58;1.45;;;17.00;99.90;;;;;;5019596;28;20068;-80
2022/08/30 02:51:57;;;;;;;5.43;1.90;;;17.10;99.90;;;;;;4995366;28;20833;-76
2022/08/30 02:54:23;;;;;;;4.47;1.50;;;17.00;99.90;;;;;;5020057;28;20049;-79
2022/08/30 02:56:49;;;;;;;5.03;1.60;;;17.00;99.90;;;;;;5011092;28;20168;-79
2022/08/30 02:59:16;;;;;;;2.58;1.33;;;17.00;99.90;;;;;;5009031;28;20504;-79
2022/08/30 03:01:44;;;;;;;2.33;1.38;;;17.00;99.90;;;;;;4979029;28;20491;-79
2022/08/30 03:04:10;;;;;;;3.30;1.45;;;17.00;99.90;;;;;;5010908;28;20064;-79
2022/08/30 03:06:36;;;;;;;2.53;1.50;;;17.00;99.90;;;;;;5027665;28;20136;-77
2022/08/30 03:09:05;;;;;;;2.28;1.25;;;17.00;99.90;;;;;;5027644;28;20706;-81
2022/08/30 03:11:30;;;;;;;4.63;1.40;;;17.00;99.90;;;;;;5003520;28;20050;-76
2022/08/30 03:13:56;;;;;;;5.50;1.70;;;17.00;99.90;;;;;;5011302;28;20046;-81
2022/08/30 03:16:22;;;;;;;2.88;1.35;;;17.00;99.90;;;;;;4988988;28;20045;-78
2022/08/30 03:18:48;;;;;;;3.97;1.60;;;16.90;99.90;;;;;;5011110;28;20050;-79
2022/08/30 03:21:15;;;;;;;4.85;1.48;;;16.90;99.90;;;;;;5011677;28;20057;-80
2022/08/30 03:23:41;;;;;;;2.38;1.50;;;16.90;99.90;;;;;;5029800;28;20107;-78
2022/08/30 03:26:10;;;;;;;3.97;1.50;;;16.90;99.90;;;;;;4995214;28;20081;-80
2022/08/30 03:28:36;;;;;;;2.50;1.50;;;16.90;99.90;;;;;;5022625;28;20045;-79
2022/08/30 03:31:02;;;;;;;4.22;1.73;;;16.90;99.90;;;;;;5010859;28;20156;-75
2022/08/30 03:33:28;;;;;;;4.07;1.60;;;16.80;99.90;;;;;;4996362;28;20053;-79
2022/08/30 03:35:54;;;;;;;2.88;1.63;;;16.80;99.90;;;;;;4977153;28;20069;-79
2022/08/30 03:38:20;;;;;;;4.70;1.42;;;16.80;99.90;;;;;;5003038;28;20048;-78
2022/08/30 03:40:47;;;;;;;11.23;1.98;;;16.80;99.90;;;;;;5014760;28;20060;-80
2022/08/30 03:43:12;;;;;;;4.03;1.50;;;16.80;99.90;;;;;;5008172;28;20057;-77
2022/08/30 03:45:39;;;;;;;2.95;1.42;;;16.80;99.90;;;;;;5008256;28;20100;-80
2022/08/30 03:48:05;;;;;;;3.90;1.67;;;16.70;99.90;;;;;;5023190;28;20041;-79
2022/08/30 03:50:30;;;;;;;3.83;1.73;;;16.70;99.90;;;;;;5014176;28;20041;-78
2022/08/30 03:52:57;;;;;;;3.80;1.73;;;16.70;99.90;;;;;;4989127;28;20058;-80
2022/08/30 03:55:23;;;;;;;4.47;1.90;;;16.60;99.90;;;;;;4989948;28;20110;-79
2022/08/30 03:57:49;;;;;;;3.13;1.33;;;16.60;99.90;;;;;;4998370;28;20045;-78
2022/08/30 04:00:17;;;;;;;3.67;1.60;;;16.50;99.90;;;;;;4995829;28;20531;-79
2022/08/30 04:02:43;;;;;;;2.97;1.67;;;16.50;99.90;;;;;;5031272;28;20499;-79
2022/08/30 04:05:10;;;;;;;4.78;1.88;;;16.50;99.90;;;;;;5004763;28;20115;-77
2022/08/30 04:07:36;;;;;;;2.97;1.95;;;16.50;99.90;;;;;;5014144;28;20624;-79
2022/08/30 04:10:04;;;;;;;3.65;1.90;;;16.40;99.90;;;;;;4996565;28;20057;-80
2022/08/30 04:12:29;;;;;;;4.45;1.73;;;16.40;99.90;;;;;;5029863;28;20410;-79
2022/08/30 04:14:55;;;;;;;2.80;1.80;;;16.30;99.90;;;;;;5013593;28;20049;-80
2022/08/30 04:17:21;;;;;;;3.83;2.00;;;16.30;99.90;;;;;;5007063;28;20049;-80
2022/08/30 04:19:47;;;;;;;5.82;2.10;;;16.20;99.90;;;;;;5007806;28;20045;-77
2022/08/30 04:22:12;;;;;;;4.80;2.20;;;16.20;99.90;;;;;;4996628;28;20131;-79
2022/08/30 04:24:40;;;;;;;3.72;2.30;;;16.10;99.90;;;;;;5006093;28;20088;-78
2022/08/30 04:27:06;;;;;;;3.72;2.08;;;16.10;99.90;;;;;;5013588;28;20037;-79
2022/08/30 04:29:32;;;;;;;3.70;2.13;;;16.00;99.90;;;;;;4997791;28;20052;-81
2022/08/30 04:31:58;;;;;;;5.55;2.10;;;15.90;99.90;;;;;;5023299;28;20053;-79
2022/08/30 04:34:24;;;;;;;4.68;1.80;;;15.90;99.90;;;;;;4980813;28;20065;-79
2022/08/30 04:36:50;;;;;;;5.00;2.35;;;15.90;99.90;;;;;;5006007;28;20053;-80
2022/08/30 04:39:19;;;;;;;4.72;2.08;;;15.80;99.90;;;;;;5047630;28;20053;-79
2022/08/30 04:41:45;;;;;;;4.22;2.20;;;15.80;99.90;;;;;;4989029;28;20054;-78
2022/08/30 04:44:11;;;;;;;4.25;2.20;;;15.70;99.90;;;;;;5025353;28;20048;-78
2022/08/30 04:46:37;;;;;;;4.43;2.45;;;15.70;99.90;;;;;;5029953;28;20033;-79
2022/08/30 04:49:03;;;;;;;3.85;2.35;;;15.70;99.90;;;;;;4998989;28;20049;-80
2022/08/30 04:51:29;;;;;;;3.42;2.00;;;15.60;99.90;;;;;;5029556;28;20535;-78
2022/08/30 04:53:56;;;;;;;3.85;2.10;;;15.60;99.90;;;;;;5013722;28;20521;-81
2022/08/30 04:56:23;;;;;;;3.67;2.35;;;15.60;99.90;;;;;;4999478;28;20045;-78
2022/08/30 04:58:51;;;;;;;3.38;2.35;;;15.50;99.90;;;;;;5026115;28;20099;-78
2022/08/30 05:01:23;;;;;;;3.20;2.40;;;15.50;99.90;;;;;;5047743;28;20057;-79
2022/08/30 05:03:51;;;;;;;6.13;2.78;;;15.50;99.90;;;;;;5026408;28;20056;-79
2022/08/30 05:06:17;;;;;;;5.32;2.40;;;15.50;99.90;;;;;;5027331;28;20076;-80
2022/08/30 05:08:43;;;;;;;5.97;2.50;;;15.50;99.90;;;;;;5024470;28;20111;-80
2022/08/30 05:11:09;;;;;;;3.65;2.53;;;15.40;99.90;;;;;;5019856;28;20050;-79
2022/08/30 05:13:35;;;;;;;6.78;2.70;;;15.40;99.90;;;;;;5004022;28;20056;-80
2022/08/30 05:16:02;;;;;;;4.82;2.70;;;15.40;99.90;;;;;;5012494;28;20053;-79
2022/08/30 05:18:28;;;;;;;5.05;2.30;;;15.40;99.90;;;;;;5024117;28;20042;-80
2022/08/30 05:21:12;;;;;;;4.95;2.40;;;15.40;99.90;;;;;;5032491;28;20510;-80
2022/08/30 05:23:39;;;;;;;6.05;2.90;;;15.40;99.90;;;;;;5016399;28;20522;-78
2022/08/30 05:26:14;;;;;;;3.63;2.45;;;15.40;99.90;;;;;;5006359;28;20049;-80
2022/08/30 05:28:40;;;;;;;5.55;3.13;;;15.40;99.90;;;;;;5024454;28;20558;-77
2022/08/30 05:31:20;;;;;;;3.88;2.60;;;15.40;99.90;;;;;;5022092;28;20042;-79
2022/08/30 05:33:46;;;;;;;4.80;2.15;;;15.50;99.90;;;;;;5013177;28;20423;-79
2022/08/30 05:36:13;;;;;;;4.13;2.60;;;15.40;99.90;;;;;;5010608;28;21387;-80
2022/08/30 05:38:40;;;;;;;6.10;2.70;;;15.50;99.90;;;;;;5022223;28;20046;-75
2022/08/30 05:41:06;;;;;;;3.60;2.33;;;15.50;99.90;;;;;;5019620;28;20057;-80
2022/08/30 05:43:32;;;;;;;4.82;2.50;;;15.50;99.90;;;;;;5022272;28;20050;-79
2022/08/30 05:46:09;;;;;;;3.92;2.30;;;15.50;99.90;;;;;;4995762;28;20051;-79
2022/08/30 05:48:37;;;;;;;3.22;2.53;;;15.50;99.90;;;;;;5028254;28;20060;-79
2022/08/30 05:51:18;;;;;;;3.38;2.50;;;15.50;99.90;;;;;;5012741;28;20042;-79
2022/08/30 05:53:45;;;;;;;4.80;2.65;;;15.50;99.90;;;;;;5044858;28;20057;-80
2022/08/30 05:56:13;;;;;;;3.88;2.53;;;15.50;99.90;;;;;;5012016;28;20132;-81
2022/08/30 05:58:39;;;;;;;4.85;2.72;;;15.50;99.90;;;;;;5028552;28;20059;-82
2022/08/30 06:01:06;;;;;;;4.15;2.40;;;15.60;99.90;;;;;;5005217;28;20148;-79
2022/08/30 06:03:32;;;;;;;5.07;3.25;;;15.60;99.90;;;;;;5010695;28;20081;-81
2022/08/30 06:06:02;;;;;;;3.50;2.63;;;15.60;99.90;;;;;;5005089;28;20124;-83
2022/08/30 06:08:28;;;;;;;3.90;2.55;;;15.60;99.90;;;;;;4994276;28;20453;-83
2022/08/30 06:10:54;;;;;;;7.35;3.17;;;15.60;99.90;;;;;;4995429;28;20127;-80
2022/08/30 06:13:21;;;;;;;4.18;2.40;;;15.70;99.90;;;;;;5003077;28;20049;-80
2022/08/30 06:15:46;;;;;;;3.65;2.50;;;15.70;99.90;;;;;;5027391;28;20124;-77
2022/08/30 06:18:12;;;;;;;2.97;2.20;;;15.70;99.90;;;;;;5010462;28;20669;-80
2022/08/30 06:20:41;;;;;;;4.80;2.80;;;15.70;99.90;;;;;;5011441;28;20396;-75
2022/08/30 06:23:07;;;;;;;4.00;2.25;;;15.80;99.90;;;;;;5002799;28;20054;-79
2022/08/30 06:25:36;;;;;;;4.25;2.60;;;15.80;99.90;;;;;;4985982;28;20518;-80
2022/08/30 06:28:02;;;;;;;3.90;2.30;;;15.80;99.90;;;;;;5026446;28;20046;-80
2022/08/30 06:30:27;;;;;;;6.22;2.88;;;15.80;99.90;;;;;;4978920;28;20150;-79
2022/08/30 06:32:53;;;;;;;4.18;2.20;;;15.90;99.90;;;;;;5018235;28;20049;-81
2022/08/30 06:35:19;;;;;;;3.88;2.35;;;16.00;99.90;;;;;;4988209;28;20319;-81
2022/08/30 06:37:45;;;;;;;5.00;2.72;;;16.00;99.90;;;;;;5006349;28;20061;-77
2022/08/30 06:40:12;;;;;;;4.57;2.72;;;16.10;99.90;;;;;;5019423;28;20079;-79
2022/08/30 06:42:38;;;;;;;3.70;2.63;;;16.20;99.90;;;;;;5009727;28;20057;-80
2022/08/30 06:45:04;;;;;;;5.15;2.97;;;16.30;99.90;;;;;;5025687;28;20057;-81
2022/08/30 06:47:30;;;;;;;4.65;2.85;;;16.40;99.90;;;;;;5026859;28;20052;-80
2022/08/30 06:49:57;;;;;;;5.03;2.40;;;16.50;99.90;;;;;;4995133;28;20053;-78
2022/08/30 06:52:23;;;;;;;4.53;2.70;;;16.60;99.90;;;;;;5009885;28;20905;-81
2022/08/30 06:54:49;;;;;;;3.83;2.17;;;16.70;99.90;;;;;;5026080;28;20053;-80
2022/08/30 06:57:15;;;;;;;4.65;3.00;;;16.80;99.90;;;;;;4994703;28;20037;-76
2022/08/30 06:59:41;;;;;;;4.32;2.40;;;17.00;99.90;;;;;;5021053;28;20134;-79
2022/08/30 07:02:07;;;;;;;5.38;2.65;;;17.00;99.90;;;;;;4994572;28;20045;-76
2022/08/30 07:04:33;;;;;;;4.22;2.47;;;17.20;99.90;;;;;;5009617;28;20084;-81
2022/08/30 07:06:59;;;;;;;4.63;2.40;;;17.30;99.90;;;;;;5010730;28;20448;-82
2022/08/30 07:09:25;;;;;;;5.10;2.35;;;17.40;99.90;;;;;;4993670;28;20056;-82
2022/08/30 07:11:51;;;;;;;4.50;2.20;;;17.60;99.90;;;;;;5003714;28;20441;-74
2022/08/30 07:14:18;;;;;;;4.57;2.20;;;17.70;99.90;;;;;;5043793;28;20096;-80
2022/08/30 07:16:45;;;;;;;3.55;2.53;;;17.70;99.90;;;;;;5013406;28;20049;-80
2022/08/30 07:19:10;;;;;;;4.68;2.00;;;18.00;99.90;;;;;;5013144;28;20402;-80
2022/08/30 07:21:44;;;;;;;3.67;2.05;;;18.10;99.90;;;;;;5006044;28;20053;-79
2022/08/30 07:24:11;;;;;;;5.70;2.17;;;18.30;99.90;;;;;;5013888;28;20082;-79
2022/08/30 07:26:45;;;;;;;5.05;1.90;;;18.50;99.90;;;;;;5015186;28;20406;-78
2022/08/30 07:29:11;;;;;;;2.70;1.70;;;18.60;99.90;;;;;;5016731;28;20410;-75
2022/08/30 07:31:37;;;;;;;4.13;1.70;;;18.80;99.90;;;;;;5033070;28;20053;-79
2022/08/30 07:34:05;;;;;;;5.60;1.90;;;19.00;99.90;;;;;;5007966;28;20053;-81
2022/08/30 07:36:31;;;;;;;3.85;1.55;;;19.10;99.90;;;;;;5030606;28;20093;-81
2022/08/30 07:38:57;;;;;;;2.35;1.50;;;19.30;99.90;;;;;;5016069;28;20442;-78
2022/08/30 07:41:28;;;;;;;2.47;1.42;;;19.40;99.90;;;;;;5022004;28;20065;-79
2022/08/30 07:43:55;;;;;;;3.70;1.65;;;19.60;99.90;;;;;;5031534;28;20395;-80
2022/08/30 07:46:21;;;;;;;2.25;1.42;;;19.70;99.90;;;;;;5031911;28;20418;-80
2022/08/30 07:48:47;;;;;;;2.97;1.75;;;19.80;99.90;;;;;;5023936;28;20083;-78
2022/08/30 07:51:16;;;;;;;2.63;1.60;;;20.00;99.90;;;;;;5021670;28;20053;-79
2022/08/30 07:53:41;;;;;;;2.50;1.50;;;20.20;99.90;;;;;;5051765;28;20101;-81
2022/08/30 07:56:07;;;;;;;3.35;2.13;;;20.30;99.90;;;;;;4999918;28;20473;-80
2022/08/30 07:58:36;;;;;;;5.57;2.30;;;20.40;99.90;;;;;;4982350;28;20057;-82
2022/08/30 08:01:03;;;;;;;3.53;1.80;;;20.60;99.90;;;;;;5007224;28;20060;-77
2022/08/30 08:03:29;;;;;;;3.25;1.83;;;20.70;99.90;;;;;;5018547;28;20343;-81
2022/08/30 08:05:56;;;;;;;2.58;1.70;;;20.80;99.90;;;;;;5004054;28;20069;-80
2022/08/30 08:08:22;;;;;;;5.40;1.70;;;21.00;99.90;;;;;;5044211;28;20132;-81
2022/08/30 08:10:48;;;;;;;3.33;1.58;;;21.20;99.90;;;;;;5025503;28;20041;-78
2022/08/30 08:13:14;;;;;;;3.25;1.40;;;21.30;99.90;;;;;;4998099;28;20059;-77
2022/08/30 08:15:39;;;;;;;4.00;1.20;;;21.40;99.90;;;;;;5031125;28;20092;-81
2022/08/30 08:18:05;;;;;;;2.15;1.15;;;21.50;99.90;;;;;;5030220;28;20380;-77
2022/08/30 08:20:33;;;;;;;6.40;1.40;;;21.00;99.90;;;;;;5015742;28;20363;-76
2022/08/30 08:22:59;;;;;;;3.08;1.58;;;21.70;99.90;;;;;;5023319;28;20045;-79
2022/08/30 08:25:25;;;;;;;2.88;1.52;;;21.90;99.90;;;;;;5005824;28;20046;-80
2022/08/30 08:27:51;;;;;;;2.22;1.10;;;22.10;99.90;;;;;;4999136;28;20042;-80
2022/08/30 08:30:18;;;;;;;2.22;1.20;;;22.20;99.90;;;;;;5012733;28;20501;-80
2022/08/30 08:32:44;;;;;;;2.28;1.10;;;22.40;99.90;;;;;;5014945;28;20053;-80
2022/08/30 08:35:10;;;;;;;2.25;1.27;;;22.50;99.90;;;;;;4982277;28;20052;-81
2022/08/30 08:37:38;;;;;;;2.15;0.90;;;22.60;99.90;;;;;;5014304;28;20062;-79
2022/08/30 08:40:05;;;;;;;3.92;1.00;;;22.80;99.90;;;;;;5026042;28;20045;-83
2022/08/30 08:42:49;;;;;;;2.80;1.00;;;22.90;99.90;;;;;;5030980;28;20081;-78
2022/08/30 08:45:29;;;;;;;2.92;1.10;;;23.10;99.90;;;;;;5029086;28;20053;-81
2022/08/30 08:48:00;;;;;;;1.90;1.05;;;23.00;99.90;;;;;;4997173;28;20069;-80
2022/08/30 08:50:27;;;;;;;4.10;1.00;;;23.50;99.90;;;;;;5013222;28;20046;-81
2022/08/30 08:53:36;;;;;;;3.03;1.30;;;23.60;99.90;;;;;;5031296;28;20057;-81
2022/08/30 08:56:11;;;;;;;2.03;0.98;;;23.70;99.90;;;;;;5014194;28;20132;-82
2022/08/30 08:58:47;;;;;;;2.50;0.93;;;23.90;99.90;;;;;;5047797;28;20045;-81
2022/08/30 09:01:16;;;;;;;1.98;0.93;;;24.00;99.90;;;;;;5016012;28;20057;-82
2022/08/30 09:03:42;;;;;;;1.70;0.90;;;24.10;99.90;;;;;;5013442;28;20049;-81
2022/08/30 09:06:52;;;;;;;2.88;1.00;;;24.20;99.90;;;;;;5008817;28;20144;-81
2022/08/30 09:09:24;;;;;;;1.95;0.90;;;24.40;99.10;;;;;;5005305;28;20076;-82
2022/08/30 09:11:50;;;;;;;2.22;1.10;;;24.50;99.90;;;;;;5008438;28;20132;-82
2022/08/30 09:14:21;;;;;;;1.90;0.93;;;24.70;99.90;;;;;;5025404;28;20124;-82
2022/08/30 09:16:51;;;;;;;2.35;1.00;;;25.00;99.80;;;;;;5026638;28;20177;-80
2022/08/30 09:19:53;;;;;;;2.10;1.08;;;25.10;99.70;;;;;;5024570;28;20045;-80
2022/08/30 09:22:32;;;;;;;3.05;1.27;;;25.00;98.20;;;;;;5008928;28;20045;-81
2022/08/30 09:25:28;;;;;;;2.92;1.30;;;25.00;98.70;;;;;;5008968;28;20052;-83
2022/08/30 09:28:08;;;;;;;3.95;1.50;;;25.10;98.80;;;;;;5009290;28;20049;-81
2022/08/30 09:30:34;;;;;;;2.08;1.02;;;25.10;99.10;;;;;;5013976;28;20246;-79
2022/08/30 09:33:03;;;;;;;2.20;1.10;;;25.10;99.00;;;;;;5010009;28;20049;-82
2022/08/30 09:35:43;;;;;;;2.90;1.08;;;25.00;98.70;;;;;;5022212;28;20114;-81
2022/08/30 09:38:32;;;;;;;3.05;1.33;;;24.90;98.70;;;;;;5023239;28;20053;-82
2022/08/30 09:41:01;;;;;;;1.83;0.95;;;24.70;98.00;;;;;;5019563;28;20091;-81
2022/08/30 09:43:32;;;;;;;3.00;1.10;;;24.80;99.10;;;;;;5022367;28;20115;-79
2022/08/30 09:45:58;;;;;;;2.28;1.20;;;24.70;98.50;;;;;;5026498;28;20132;-79
2022/08/30 09:48:27;;;;;;;1.70;1.00;;;24.80;98.80;;;;;;5002329;28;20049;-80
2022/08/30 09:51:07;;;;;;;2.45;1.10;;;25.00;98.80;;;;;;5022804;28;20079;-82
2022/08/30 09:53:38;;;;;;;3.10;1.25;;;25.20;98.30;;;;;;5022576;28;20168;-81
2022/08/30 09:56:17;;;;;;;3.42;0.85;;;25.50;98.20;;;;;;5025046;28;20038;-81
2022/08/30 09:59:05;;;;;;;1.73;0.98;;;25.80;97.60;;;;;;5018940;28;20108;-81
2022/08/30 10:01:41;;;;;;;2.97;0.93;;;25.90;97.20;;;;;;5004759;28;20056;-80
2022/08/30 10:04:28;;;;;;;1.90;1.17;;;25.80;96.80;;;;;;5028556;28;20384;-79
2022/08/30 10:07:04;;;;;;;2.78;1.08;;;26.00;96.30;;;;;;5026766;28;20044;-81
2022/08/30 10:09:44;;;;;;;1.42;0.82;;;25.90;96.60;;;;;;5023405;28;20040;-80
2022/08/30 10:12:19;;;;;;;2.72;1.00;;;26.00;96.60;;;;;;5006998;28;20483;-81
2022/08/30 10:15:09;;;;;;;2.15;1.20;;;25.90;96.10;;;;;;5020895;28;20045;-79
2022/08/30 10:18:11;;;;;;;4.28;1.00;;;25.60;95.30;;;;;;5027052;28;20052;-81
2022/08/30 10:20:42;;;;;;;3.78;0.93;;;25.30;95.90;;;;;;4995383;28;20141;-80
2022/08/30 10:23:23;;;;;;;2.08;1.10;;;25.30;96.80;;;;;;5009998;28;20056;-78
2022/08/30 10:26:12;;;;;;;1.55;0.93;;;25.40;95.90;;;;;;5009242;28;20045;-82
2022/08/30 10:28:43;;;;;;;2.85;1.02;;;25.30;96.00;;;;;;5008502;28;20034;-81
2022/08/30 10:31:30;;;;;;;2.00;0.90;;;25.40;96.60;;;;;;5019188;28;20079;-78
2022/08/30 10:34:04;;;;;;;2.67;1.15;;;25.50;96.00;;;;;;5009683;28;20052;-80
2022/08/30 10:36:42;;;;;;;2.03;0.90;;;25.40;96.10;;;;;;5024217;28;20057;-79
2022/08/30 10:39:11;;;;;;;2.10;1.10;;;25.50;95.50;;;;;;5038267;28;20049;-80
2022/08/30 10:41:49;;;;;;;3.20;1.00;;;25.40;95.70;;;;;;5012458;28;20053;-79
2022/08/30 10:44:29;;;;;;;2.42;0.98;;;25.60;94.80;;;;;;5020570;28;20088;-78
2022/08/30 10:47:03;;;;;;;2.63;1.00;;;25.80;94.90;;;;;;5020202;28;20048;-77
2022/08/30 10:49:46;;;;;;;1.63;0.93;;;25.80;94.90;;;;;;5046272;28;20049;-77
2022/08/30 10:52:34;;;;;;;2.22;1.10;;;26.20;94.50;;;;;;5038142;28;20095;-80
2022/08/30 10:55:27;;;;;;;2.35;1.10;;;26.50;93.70;;;;;;5029731;28;20105;-81
2022/08/30 10:58:06;;;;;;;2.00;1.00;;;26.70;93.90;;;;;;5020137;28;20069;-78
2022/08/30 11:00:52;;;;;;;3.28;1.02;;;27.00;93.20;;;;;;5011025;28;20049;-80
2022/08/30 11:03:41;;;;;;;;;;;27.10;92.40;;;;;;5004042;28;20045;-78
2022/08/30 11:06:38;;;;;;;1.65;0.80;;;27.10;91.30;;;;;;5034260;28;19933;-79
2022/08/30 11:09:19;;;;;;;1.65;1.00;;;27.50;91.20;;;;;;5043234;28;20056;-80
2022/08/30 11:12:03;;;;;;;2.80;1.20;;;27.80;90.80;;;;;;5028389;28;20049;-80
2022/08/30 11:14:29;;;;;;;2.90;0.93;;;28.10;88.90;;;;;;5011449;28;20072;-76
2022/08/30 11:17:00;;;;;;;2.00;0.90;;;28.30;89.40;;;;;;5002746;28;20057;-79
2022/08/30 11:19:39;;;;;;;1.90;0.95;;;28.50;87.50;;;;;;5018818;28;20394;-79
2022/08/30 11:22:15;;;;;;;1.63;0.90;;;28.60;86.90;;;;;;5010717;28;20141;-80
2022/08/30 11:25:01;;;;;;;1.95;0.90;;;28.80;85.60;;;;;;5025629;28;20350;-83
2022/08/30 11:27:57;;;;;;;4.80;0.93;;;29.00;83.20;;;;;;5025987;28;20116;-80
2022/08/30 11:30:23;;;;;;;2.38;0.95;;;29.10;82.00;;;;;;5003221;28;20464;-81
2022/08/30 11:33:04;;;;;;;1.98;0.90;;;29.10;82.40;;;;;;5025832;28;20115;-80
2022/08/30 11:35:51;;;;;;;1.83;0.90;;;29.30;78.80;;;;;;5024134;28;20052;-79
2022/08/30 11:38:25;;;;;;;2.92;0.95;;;29.20;77.10;;;;;;5010400;28;20600;-78
2022/08/30 11:40:55;;;;;;;1.65;1.10;;;29.30;79.10;;;;;;5008877;28;20049;-80
2022/08/30 11:43:38;;;;;;;2.03;0.90;;;29.50;78.10;;;;;;5010069;28;20487;-81
2022/08/30 11:46:23;;;;;;;4.45;0.98;;;29.60;76.40;;;;;;5009638;28;20048;-79
2022/08/30 11:48:53;;;;;;;2.13;0.88;;;29.60;75.20;;;;;;5018118;28;20100;-80
2022/08/30 11:51:46;;;;;;;1.98;0.75;;;29.70;76.10;;;;;;5027304;28;20403;-77
2022/08/30 11:54:27;;;;;;;2.70;0.85;;;29.80;72.50;;;;;;5002734;28;20510;-80
2022/08/30 11:57:20;;;;;;;2.47;0.80;;;29.70;74.00;;;;;;5027278;28;20140;-82
2022/08/30 11:59:48;;;;;;;3.90;1.25;;;29.80;72.80;;;;;;5003587;28;20104;-78
2022/08/30 12:02:42;;;;;;;4.20;1.13;;;29.80;72.20;;;;;;5030967;28;20053;-80
2022/08/30 12:05:08;;;;;;;2.72;0.80;;;29.80;70.30;;;;;;5028518;28;20045;-78
2022/08/30 12:07:55;;;;;;;2.70;0.82;;;29.90;71.00;;;;;;4997863;28;20052;-80
2022/08/30 12:10:42;;;;;;;2.13;0.80;;;30.00;68.10;;;;;;5015014;28;20103;-79
2022/08/30 12:13:09;;;;;;;2.88;0.88;;;30.00;66.70;;;;;;5046625;28;20045;-79
2022/08/30 12:15:59;;;;;;;1.83;0.88;;;30.00;69.70;;;;;;5014063;28;20049;-76
2022/08/30 12:18:55;;;;;;;1.70;0.70;;;30.10;66.10;;;;;;5013929;28;20072;-81
2022/08/30 12:21:23;;;;;;;1.65;0.90;;;30.30;68.10;;;;;;5023208;28;20514;-80
2022/08/30 12:24:19;;;;;;;3.30;1.13;;;30.30;68.30;;;;;;5004789;28;20045;-79
2022/08/30 12:26:48;;;;;;;1.92;0.95;;;30.40;66.40;;;;;;5042721;28;20055;-76
2022/08/30 12:29:21;;;;;;;1.90;0.98;;;30.50;67.10;;;;;;5027956;28;20473;-79
2022/08/30 12:32:03;;;;;;;4.63;1.00;;;30.50;66.40;;;;;;5020470;28;20038;-81
2022/08/30 12:34:34;;;;;;;1.63;0.80;;;30.40;63.30;;;;;;5007564;28;20057;-79
2022/08/30 12:37:02;;;;;;;2.03;0.90;;;30.50;65.50;;;;;;5020334;28;20499;-78
2022/08/30 12:39:32;;;;;;;1.30;0.80;;;30.60;65.90;;;;;;5017624;28;20049;-81
2022/08/30 12:42:25;;;;;;;2.03;0.80;;;30.80;65.50;;;;;;5008973;28;20369;-79
2022/08/30 12:44:57;;;;;;;3.30;1.10;;;31.00;63.30;;;;;;5008571;28;20084;-79
2022/08/30 12:47:47;;;;;;;2.85;1.02;;;30.90;63.60;;;;;;5029316;28;20045;-79
2022/08/30 12:50:16;;;;;;;1.95;1.02;;;31.00;63.30;;;;;;5024842;28;20057;-77
2022/08/30 12:52:54;;;;;;;2.50;0.88;;;31.10;63.70;;;;;;5021200;28;20053;-79
2022/08/30 12:55:24;;;;;;;4.07;0.80;;;31.20;63.60;;;;;;5007377;28;20478;-80
2022/08/30 12:58:08;;;;;;;1.95;0.90;;;31.20;63.50;;;;;;5028060;28;20060;-81
2022/08/30 13:00:40;;;;;;;2.05;0.88;;;31.30;62.50;;;;;;5021761;28;20053;-78
2022/08/30 13:03:33;;;;;;;2.83;0.85;;;31.40;62.20;;;;;;5013013;28;20045;-81
2022/08/30 13:05:59;;;;;;;2.88;0.90;;;31.60;62.00;;;;;;5004125;28;20060;-79
2022/08/30 13:08:49;;;;;;;1.88;0.85;;;31.60;62.30;;;;;;5013718;28;20050;-79